SCFA

Details ICAO SCFA (ANF)
Name CERRO MORENO INTL
Region Chile
Timezone America/Santiago (UTC-3.0)
Plans Departing 64
Arriving 46
Stats Elevation 455 ft / 139 m (AMSL)
Location -23.444477° -70.445100°
Runways 1
Magnetic Variation 3.476° W
Sunrise 2017-12-18 09:52:33 UTC / 2017-12-18 06:52:33 Local
Sunset 2017-12-18 23:27:08 UTC / 2017-12-18 20:27:08 Local
Advertisement - Login to hide

Runways

ID Width Length Bearing (true) Bearing (mag) Surface Threshold Offset Overrun Length
01 164 ft / 50 m 8,567 ft / 2,611 m 6.86° 10.34° Asphalt 0 ft / 0 m 50 ft / 15 m
19 164 ft / 50 m 8,567 ft / 2,611 m 186.86° 190.34° Asphalt 0 ft / 0 m 155 ft / 47 m

Map

Weather


0- 5 10 15 20 25 30 35+ Temperature / ° C

Clouds and Precipitation
Forecast for 2017-12-18 18:00 UTC. Updated an hour ago

Ground ~20,000 ft ~40,000 ft Winds

METAR

SCFA 181400Z 22007KT 9999 FEW023 BKN220 21/12 Q1013 NOSIG

TAF

TAF SCFA 181010Z 1812/1912 19004KT CAVOK TX21/1818Z TN18/1906Z BECMG 1815/1817 22012KT FEW025 BECMG 1900/1902 18004KT BECMG 1906/1908 36004KT

Frequencies

Ground 121.90 MHz GND
Approach 119.30 MHz ANTOFAGASTA APP
Tower 118.10 MHz ANTOFAGASTA TWR
Approach 120.90 MHz ANTOFAGASTA APP
Warning: Do not use this data for real-world aviation or navigation. No guarantee of current accuracy is given.